createdAt,value
2023-06-19T00:02:25.988Z,67.70
2023-06-19T00:05:00.436Z,67.70
2023-06-19T00:07:28.187Z,67.70
2023-06-19T00:09:55.674Z,67.70
2023-06-19T00:12:23.336Z,67.70
2023-06-19T00:14:51.130Z,67.80
2023-06-19T00:17:18.603Z,67.80
2023-06-19T00:19:46.168Z,67.70
2023-06-19T00:22:13.823Z,67.70
2023-06-19T00:24:41.554Z,67.70
2023-06-19T00:27:10.197Z,67.80
2023-06-19T00:29:37.990Z,67.70
2023-06-19T00:32:06.121Z,67.70
2023-06-19T00:34:33.924Z,67.80
2023-06-19T00:37:01.725Z,67.80
2023-06-19T00:39:29.994Z,67.70
2023-06-19T00:41:58.421Z,67.70
2023-06-19T00:44:25.994Z,67.70
2023-06-19T00:47:01.078Z,67.70
2023-06-19T00:49:30.782Z,67.70
2023-06-19T00:51:58.815Z,67.70
2023-06-19T00:54:26.876Z,67.70
2023-06-19T00:56:55.251Z,67.70
2023-06-19T00:59:23.734Z,67.70
2023-06-19T01:01:53.005Z,67.70
2023-06-19T01:04:21.104Z,67.80
2023-06-19T01:07:04.011Z,67.80
2023-06-19T01:09:42.950Z,67.80
2023-06-19T01:12:19.722Z,67.90
2023-06-19T01:14:58.872Z,67.80
2023-06-19T01:17:29.910Z,67.80
2023-06-19T01:20:00.432Z,67.90
2023-06-19T01:22:32.564Z,67.90
2023-06-19T01:25:00.471Z,67.90
2023-06-19T01:27:32.740Z,67.90
2023-06-19T01:30:03.289Z,67.80
2023-06-19T01:33:02.061Z,67.80
2023-06-19T01:35:34.954Z,67.90
2023-06-19T01:38:04.333Z,67.80
2023-06-19T01:40:34.726Z,67.90
2023-06-19T01:43:03.445Z,67.80
2023-06-19T01:45:33.951Z,67.90
2023-06-19T01:48:02.022Z,67.90
2023-06-19T01:50:29.621Z,67.90
2023-06-19T01:52:57.688Z,67.90
2023-06-19T01:55:25.255Z,67.80
2023-06-19T01:57:53.051Z,67.90
2023-06-19T02:00:21.044Z,67.90
2023-06-19T02:02:52.129Z,67.90
2023-06-19T02:05:20.126Z,67.90
2023-06-19T02:07:47.966Z,67.90
2023-06-19T02:10:17.565Z,67.90
2023-06-19T02:12:45.103Z,67.90
2023-06-19T02:15:12.718Z,67.80
2023-06-19T02:17:40.788Z,67.50
2023-06-19T02:20:10.286Z,67.70
2023-06-19T02:22:39.843Z,67.60
2023-06-19T02:25:08.520Z,67.60
2023-06-19T02:27:36.960Z,67.60
2023-06-19T02:30:06.453Z,67.70
2023-06-19T02:32:34.355Z,67.60
2023-06-19T02:35:07.139Z,67.90
2023-06-19T02:37:37.172Z,68.00
2023-06-19T02:40:06.845Z,68.00
2023-06-19T02:42:34.693Z,68.00
2023-06-19T02:45:05.715Z,68.00
2023-06-19T02:47:34.427Z,68.00
2023-06-19T02:50:04.550Z,68.00
2023-06-19T02:52:33.052Z,68.10
2023-06-19T02:55:00.602Z,68.80
2023-06-19T02:57:28.480Z,68.20
2023-06-19T02:59:56.265Z,68.20
2023-06-19T03:02:24.285Z,68.20
2023-06-19T03:04:53.583Z,68.30
2023-06-19T03:07:21.218Z,68.20
2023-06-19T03:09:48.762Z,68.20
2023-06-19T03:12:16.356Z,68.10
2023-06-19T03:14:44.054Z,68.20
2023-06-19T03:17:13.719Z,68.10
2023-06-19T03:19:41.309Z,68.10
2023-06-19T03:22:08.970Z,68.10
2023-06-19T03:24:36.473Z,68.20
2023-06-19T03:27:16.211Z,68.10
2023-06-19T03:29:43.915Z,68.10
2023-06-19T03:32:15.668Z,68.10
2023-06-19T03:34:44.127Z,68.00
2023-06-19T03:37:13.809Z,68.10
2023-06-19T03:39:43.012Z,68.00
2023-06-19T03:42:12.787Z,68.20
2023-06-19T03:44:41.812Z,68.00
2023-06-19T03:47:09.880Z,68.10
2023-06-19T03:49:37.458Z,68.10
2023-06-19T03:52:05.729Z,68.20
2023-06-19T03:54:33.366Z,68.00
2023-06-19T03:57:01.220Z,68.20
2023-06-19T03:59:28.951Z,68.20
2023-06-19T04:03:13.392Z,68.10
2023-06-19T04:05:43.262Z,68.10
2023-06-19T04:08:12.948Z,68.10
2023-06-19T04:10:44.812Z,68.20
2023-06-19T04:13:13.180Z,68.20
2023-06-19T04:15:40.772Z,68.20
2023-06-19T04:18:08.322Z,68.20
2023-06-19T04:20:38.410Z,68.20
2023-06-19T04:23:08.951Z,68.20
2023-06-19T04:25:36.972Z,68.20
2023-06-19T04:28:05.106Z,68.20
2023-06-19T04:30:33.045Z,68.30
2023-06-19T04:33:01.504Z,68.30
2023-06-19T04:35:29.136Z,68.30
2023-06-19T04:37:56.801Z,68.30
2023-06-19T04:40:26.895Z,68.30
2023-06-19T04:42:55.361Z,68.30
2023-06-19T04:45:23.193Z,68.30
2023-06-19T04:47:53.779Z,68.40
2023-06-19T04:50:23.474Z,68.40
2023-06-19T04:52:52.644Z,68.40
2023-06-19T04:55:20.863Z,68.40
2023-06-19T04:57:48.599Z,68.40
2023-06-19T05:00:20.488Z,68.40
2023-06-19T05:02:48.911Z,68.50
2023-06-19T05:05:17.673Z,68.50
2023-06-19T05:07:46.797Z,68.50
2023-06-19T05:10:14.486Z,68.50
2023-06-19T05:12:42.248Z,68.50
2023-06-19T05:15:10.680Z,68.60
2023-06-19T05:17:40.280Z,68.60
2023-06-19T05:20:08.895Z,68.70
2023-06-19T05:22:37.886Z,68.70
2023-06-19T05:25:06.274Z,68.80
2023-06-19T05:27:34.421Z,68.80
2023-06-19T05:30:02.267Z,68.80
2023-06-19T05:32:30.103Z,68.80
2023-06-19T05:34:58.158Z,68.90
2023-06-19T05:37:25.778Z,68.80
2023-06-19T05:39:53.786Z,68.90
2023-06-19T05:42:21.226Z,68.80
2023-06-19T05:44:49.161Z,68.80
2023-06-19T05:47:21.403Z,68.90
2023-06-19T05:49:50.007Z,69.00
2023-06-19T05:52:17.720Z,69.00
2023-06-19T05:54:45.341Z,69.00
2023-06-19T05:57:13.192Z,69.10
2023-06-19T05:59:42.846Z,69.10
2023-06-19T06:02:10.459Z,69.20
2023-06-19T06:04:38.271Z,69.30
2023-06-19T06:07:06.544Z,69.30
2023-06-19T06:09:36.940Z,69.30
2023-06-19T06:12:05.968Z,69.50
2023-06-19T06:14:33.649Z,69.40
2023-06-19T06:17:01.528Z,69.60
2023-06-19T06:19:30.386Z,69.70
2023-06-19T06:21:59.682Z,69.90
2023-06-19T06:24:27.266Z,70.10
2023-06-19T06:26:54.664Z,70.30
2023-06-19T06:29:22.548Z,70.70
2023-06-19T06:31:50.580Z,70.80
2023-06-19T06:34:18.677Z,70.80
2023-06-19T06:37:00.936Z,71.00
2023-06-19T06:39:32.683Z,71.10
2023-06-19T06:42:00.254Z,71.20
2023-06-19T06:44:29.605Z,71.20
2023-06-19T06:46:57.181Z,71.30
2023-06-19T06:49:25.153Z,71.40
2023-06-19T06:51:53.851Z,71.40
2023-06-19T06:54:23.379Z,71.50
2023-06-19T06:56:50.878Z,71.50
2023-06-19T06:59:18.290Z,71.60
2023-06-19T07:01:45.919Z,71.60
2023-06-19T07:04:13.770Z,71.50
2023-06-19T07:06:41.605Z,72.20
2023-06-19T07:09:09.117Z,71.60
2023-06-19T07:11:36.673Z,71.50
2023-06-19T07:14:04.427Z,71.50
2023-06-19T07:16:32.136Z,71.50
2023-06-19T07:19:01.167Z,71.50
2023-06-19T07:21:29.899Z,71.50
2023-06-19T07:23:58.075Z,71.50
2023-06-19T07:26:25.658Z,71.50
2023-06-19T07:28:53.200Z,71.50
2023-06-19T07:31:20.943Z,71.40
2023-06-19T07:33:48.520Z,71.40
2023-06-19T07:36:17.391Z,71.50
2023-06-19T07:38:47.139Z,71.40
2023-06-19T07:41:15.030Z,71.40
2023-06-19T07:43:42.789Z,71.40
2023-06-19T07:46:12.135Z,71.50
2023-06-19T07:48:40.207Z,71.50
2023-06-19T07:51:07.853Z,71.50
2023-06-19T07:53:35.253Z,71.40
2023-06-19T07:56:02.896Z,71.40
2023-06-19T07:58:31.525Z,71.40
2023-06-19T08:00:58.961Z,71.40
2023-06-19T08:03:26.610Z,71.40
2023-06-19T08:05:54.344Z,71.40
2023-06-19T08:08:22.607Z,71.40
2023-06-19T08:10:50.363Z,71.40
2023-06-19T08:13:18.058Z,71.40
2023-06-19T08:15:46.444Z,71.50
2023-06-19T08:18:13.883Z,71.40
2023-06-19T08:20:41.666Z,71.50
2023-06-19T08:23:09.505Z,71.50
2023-06-19T08:25:37.087Z,71.50
2023-06-19T08:28:06.170Z,71.40
2023-06-19T08:30:33.893Z,71.40
2023-06-19T08:33:01.393Z,71.30
2023-06-19T08:35:29.051Z,71.30
2023-06-19T08:37:57.097Z,71.30
2023-06-19T08:40:25.199Z,71.20
2023-06-19T08:42:53.608Z,71.20
2023-06-19T08:45:22.230Z,71.30
2023-06-19T08:47:50.543Z,71.20
2023-06-19T08:50:18.566Z,71.20
2023-06-19T08:52:46.213Z,71.30
2023-06-19T08:55:14.271Z,71.20
2023-06-19T08:57:42.819Z,71.10
2023-06-19T09:00:12.070Z,71.10
2023-06-19T09:02:54.902Z,71.00
2023-06-19T09:05:32.483Z,71.10
2023-06-19T09:08:05.163Z,71.00
2023-06-19T09:10:37.169Z,71.00
2023-06-19T09:13:06.118Z,71.00
2023-06-19T09:15:36.812Z,70.90
2023-06-19T09:18:10.362Z,70.90
2023-06-19T09:20:45.905Z,70.90
2023-06-19T09:23:14.838Z,71.00
2023-06-19T09:25:56.190Z,70.90
2023-06-19T09:28:29.490Z,70.90
2023-06-19T09:31:06.431Z,70.90
2023-06-19T09:33:36.229Z,71.10
2023-06-19T09:36:06.566Z,71.00
2023-06-19T09:38:42.299Z,71.10
2023-06-19T09:41:13.932Z,71.10
2023-06-19T09:43:45.257Z,71.00
2023-06-19T09:46:16.696Z,71.00
2023-06-19T09:48:51.103Z,71.00
2023-06-19T09:51:32.250Z,71.00
2023-06-19T09:54:00.838Z,71.00
2023-06-19T09:56:29.533Z,71.00
2023-06-19T09:59:01.569Z,71.00
2023-06-19T10:01:33.585Z,71.00
2023-06-19T10:04:09.690Z,70.90
2023-06-19T10:06:48.601Z,71.00
2023-06-19T10:09:20.676Z,70.90
2023-06-19T10:11:52.645Z,70.90
2023-06-19T10:14:22.702Z,70.90
2023-06-19T10:16:50.531Z,70.70
2023-06-19T10:19:21.733Z,70.80
2023-06-19T10:21:54.065Z,70.90
2023-06-19T10:24:22.518Z,70.80
2023-06-19T10:27:02.455Z,70.80
2023-06-19T10:29:57.849Z,70.80
2023-06-19T10:32:31.278Z,70.90
2023-06-19T10:34:59.123Z,70.70
2023-06-19T10:37:35.770Z,70.80
2023-06-19T10:40:04.048Z,70.70
2023-06-19T10:42:31.643Z,70.60
2023-06-19T10:45:10.290Z,70.60
2023-06-19T10:47:40.988Z,70.60
2023-06-19T10:50:16.778Z,70.50
2023-06-19T10:52:46.217Z,70.50
2023-06-19T10:55:14.824Z,70.80
2023-06-19T10:57:50.323Z,70.70
2023-06-19T11:00:31.034Z,70.90
2023-06-19T11:03:00.460Z,70.90
2023-06-19T11:05:29.865Z,71.10
2023-06-19T11:08:00.333Z,71.00
2023-06-19T11:10:30.042Z,71.30
2023-06-19T11:12:59.901Z,71.30
2023-06-19T11:15:35.693Z,71.20
2023-06-19T11:18:04.648Z,71.30
2023-06-19T11:20:32.338Z,71.20
2023-06-19T11:23:02.404Z,71.90
2023-06-19T11:25:42.088Z,71.20
2023-06-19T11:28:19.225Z,71.30
2023-06-19T11:30:49.555Z,71.50
2023-06-19T11:33:24.242Z,71.40
2023-06-19T11:35:53.755Z,71.40
2023-06-19T11:38:27.404Z,71.50
2023-06-19T11:40:58.655Z,71.20
2023-06-19T11:43:30.868Z,71.40
2023-06-19T11:46:09.250Z,71.50
2023-06-19T11:48:40.524Z,71.40
2023-06-19T11:51:09.422Z,71.30
2023-06-19T11:53:37.273Z,71.30
2023-06-19T11:56:05.398Z,71.50
2023-06-19T11:58:33.146Z,71.40
2023-06-19T12:01:00.677Z,71.40
2023-06-19T12:03:28.750Z,71.30
2023-06-19T12:05:56.582Z,71.20
2023-06-19T12:08:24.695Z,71.40
2023-06-19T12:10:53.467Z,71.90
2023-06-19T12:13:21.443Z,71.20
2023-06-19T12:15:49.111Z,71.20
2023-06-19T12:18:17.058Z,71.30
2023-06-19T12:20:45.059Z,71.10
2023-06-19T12:23:12.804Z,71.20
2023-06-19T12:25:40.486Z,71.20
2023-06-19T12:28:10.678Z,71.10
2023-06-19T12:30:38.539Z,71.10
2023-06-19T12:33:06.373Z,71.20
2023-06-19T12:35:34.004Z,71.20
2023-06-19T12:38:02.462Z,71.40
2023-06-19T12:40:30.747Z,71.30
2023-06-19T12:42:58.613Z,71.20
2023-06-19T12:45:26.523Z,71.30
2023-06-19T12:47:56.084Z,71.30
2023-06-19T12:50:24.626Z,71.40
2023-06-19T12:52:53.297Z,71.20
2023-06-19T12:55:21.356Z,71.30
2023-06-19T12:57:49.125Z,71.30
2023-06-19T13:00:17.201Z,71.30
2023-06-19T13:02:45.295Z,71.30
2023-06-19T13:05:13.034Z,71.20
2023-06-19T13:07:40.632Z,71.10
2023-06-19T13:10:08.752Z,71.30
2023-06-19T13:12:37.374Z,71.30
2023-06-19T13:15:06.351Z,71.30
2023-06-19T13:17:33.922Z,71.30
2023-06-19T13:20:01.485Z,71.30
2023-06-19T13:22:29.181Z,71.30
2023-06-19T13:24:56.897Z,71.30
2023-06-19T13:27:25.054Z,71.20
2023-06-19T13:29:52.882Z,71.30
2023-06-19T13:32:20.375Z,71.30
2023-06-19T13:34:48.181Z,71.90
2023-06-19T13:37:16.000Z,71.30
2023-06-19T13:39:44.375Z,71.40
2023-06-19T13:42:12.379Z,71.30
2023-06-19T13:44:40.285Z,71.40
2023-06-19T13:47:08.736Z,71.30
2023-06-19T13:49:39.611Z,71.40
2023-06-19T13:52:07.727Z,71.40
2023-06-19T13:54:35.906Z,71.30
2023-06-19T13:57:04.027Z,71.40
2023-06-19T13:59:32.019Z,71.50
2023-06-19T14:01:59.703Z,71.50
2023-06-19T14:04:27.452Z,71.50
2023-06-19T14:06:56.395Z,71.60
2023-06-19T14:09:23.818Z,71.50
2023-06-19T14:11:55.412Z,72.10
2023-06-19T14:14:23.078Z,71.50
2023-06-19T14:16:51.551Z,71.50
2023-06-19T14:19:19.256Z,71.50
2023-06-19T14:21:47.385Z,71.60
2023-06-19T14:24:15.285Z,71.50
2023-06-19T14:26:42.932Z,71.50
2023-06-19T14:29:10.844Z,71.40
2023-06-19T14:31:38.533Z,71.30
2023-06-19T14:34:06.149Z,71.30
2023-06-19T14:36:33.761Z,71.20
2023-06-19T14:39:01.489Z,71.10
2023-06-19T14:41:29.283Z,71.20
2023-06-19T14:43:57.100Z,71.30
2023-06-19T14:46:38.444Z,71.40
2023-06-19T14:49:09.072Z,71.50
2023-06-19T14:51:37.063Z,71.50
2023-06-19T14:54:04.696Z,71.60
2023-06-19T14:56:32.510Z,71.50
2023-06-19T14:59:00.194Z,71.60
2023-06-19T15:01:28.522Z,71.70
2023-06-19T15:03:56.866Z,71.70
2023-06-19T15:06:24.840Z,71.80
2023-06-19T15:08:53.093Z,71.80
2023-06-19T15:11:20.880Z,71.80
2023-06-19T15:13:48.605Z,71.70
2023-06-19T15:16:16.607Z,71.70
2023-06-19T15:18:45.049Z,71.80
2023-06-19T15:21:12.906Z,71.70
2023-06-19T15:23:40.755Z,71.80
2023-06-19T15:26:08.524Z,71.80
2023-06-19T15:28:40.043Z,71.90
2023-06-19T15:31:09.728Z,71.90
2023-06-19T15:33:37.485Z,71.90
2023-06-19T15:36:05.712Z,71.90
2023-06-19T15:38:33.591Z,71.90
2023-06-19T15:41:01.250Z,72.00
2023-06-19T15:43:30.099Z,72.00
2023-06-19T15:45:58.600Z,72.00
2023-06-19T15:48:27.212Z,72.00
2023-06-19T15:50:55.202Z,72.00
2023-06-19T15:53:22.862Z,72.00
2023-06-19T15:55:50.948Z,72.00
2023-06-19T15:58:18.808Z,72.00
2023-06-19T16:00:51.004Z,72.20
2023-06-19T16:03:18.720Z,72.10
2023-06-19T16:05:57.967Z,72.10
2023-06-19T16:08:33.319Z,72.10
2023-06-19T16:11:00.906Z,71.90
2023-06-19T16:13:28.511Z,71.70
2023-06-19T16:15:56.224Z,71.60
2023-06-19T16:18:23.971Z,71.50
2023-06-19T16:20:51.554Z,71.40
2023-06-19T16:23:19.204Z,71.40
2023-06-19T16:25:46.599Z,71.40
2023-06-19T16:28:14.179Z,71.30
2023-06-19T16:30:41.904Z,71.30
2023-06-19T16:33:10.526Z,71.30
2023-06-19T16:35:38.080Z,71.20
2023-06-19T16:38:05.534Z,71.20
2023-06-19T16:40:33.506Z,71.10
2023-06-19T16:43:01.075Z,71.20
2023-06-19T16:45:28.874Z,71.20
2023-06-19T16:47:56.825Z,71.10
2023-06-19T16:50:25.448Z,71.10
2023-06-19T16:52:53.430Z,71.00
2023-06-19T16:55:23.865Z,70.90
2023-06-19T16:57:52.342Z,71.00
2023-06-19T17:00:20.939Z,70.90
2023-06-19T17:02:49.834Z,70.80
2023-06-19T17:05:19.171Z,70.90
2023-06-19T17:07:46.819Z,70.90
2023-06-19T17:10:17.833Z,70.80
2023-06-19T17:12:46.278Z,71.00
2023-06-19T17:15:13.913Z,71.30
2023-06-19T17:17:41.800Z,71.30
2023-06-19T17:20:13.843Z,71.40
2023-06-19T17:22:41.834Z,72.00
2023-06-19T17:25:10.494Z,71.50
2023-06-19T17:27:37.975Z,71.70
2023-06-19T17:30:06.260Z,71.60
2023-06-19T17:32:34.818Z,71.70
2023-06-19T17:35:05.112Z,71.70
2023-06-19T17:37:33.989Z,71.60
2023-06-19T17:40:01.955Z,72.30
2023-06-19T17:42:29.710Z,71.60
2023-06-19T17:44:57.684Z,71.70
2023-06-19T17:47:25.631Z,71.70
2023-06-19T17:49:54.154Z,71.70
2023-06-19T17:52:21.971Z,71.70
2023-06-19T17:54:54.871Z,71.70
2023-06-19T17:57:22.870Z,71.70
2023-06-19T17:59:50.783Z,71.70
2023-06-19T18:02:19.048Z,71.70
2023-06-19T18:04:46.890Z,71.70
2023-06-19T18:07:14.539Z,71.70
2023-06-19T18:09:42.063Z,71.60
2023-06-19T18:12:10.914Z,71.60
2023-06-19T18:14:38.933Z,71.60
2023-06-19T18:17:07.060Z,71.60
2023-06-19T18:19:34.849Z,71.60
2023-06-19T18:22:02.576Z,71.70
2023-06-19T18:24:30.351Z,71.90
2023-06-19T18:26:58.007Z,72.00
2023-06-19T18:29:26.531Z,72.00
2023-06-19T18:31:54.058Z,72.00
2023-06-19T18:34:21.578Z,72.00
2023-06-19T18:36:52.495Z,72.00
2023-06-19T18:39:20.464Z,72.00
2023-06-19T18:41:48.232Z,72.00
2023-06-19T18:44:15.818Z,72.00
2023-06-19T18:46:43.298Z,72.00
2023-06-19T18:49:10.899Z,72.10
2023-06-19T18:51:38.351Z,72.20
2023-06-19T18:54:05.946Z,72.10
2023-06-19T18:56:33.350Z,72.20
2023-06-19T18:59:01.115Z,72.20
2023-06-19T19:01:29.124Z,72.20
2023-06-19T19:03:57.001Z,72.30
2023-06-19T19:06:25.132Z,72.30
2023-06-19T19:08:57.578Z,72.30
2023-06-19T19:11:25.325Z,72.30
2023-06-19T19:13:52.837Z,73.00
2023-06-19T19:16:20.531Z,72.40
2023-06-19T19:18:48.216Z,72.40
2023-06-19T19:21:15.782Z,72.40
2023-06-19T19:23:43.208Z,72.40
2023-06-19T19:26:11.178Z,72.60
2023-06-19T19:28:39.367Z,72.60
2023-06-19T19:31:07.080Z,72.60
2023-06-19T19:33:40.709Z,72.70
2023-06-19T19:36:08.916Z,72.80
2023-06-19T19:38:36.504Z,72.90
2023-06-19T19:41:16.201Z,72.80
2023-06-19T19:43:44.174Z,72.90
2023-06-19T19:46:12.269Z,73.00
2023-06-19T19:48:39.912Z,72.90
2023-06-19T19:51:07.393Z,73.00
2023-06-19T19:53:34.973Z,73.00
2023-06-19T19:56:02.567Z,73.20
2023-06-19T19:58:30.931Z,73.20
2023-06-19T20:00:58.723Z,73.30
2023-06-19T20:03:26.244Z,73.40
2023-06-19T20:05:54.133Z,73.50
2023-06-19T20:08:21.845Z,73.40
2023-06-19T20:10:49.900Z,73.40
2023-06-19T20:13:17.418Z,73.40
2023-06-19T20:15:48.114Z,73.40
2023-06-19T20:18:16.221Z,73.40
2023-06-19T20:20:43.901Z,73.50
2023-06-19T20:23:11.659Z,73.50
2023-06-19T20:25:39.089Z,73.50
2023-06-19T20:28:08.925Z,73.50
2023-06-19T20:30:36.758Z,73.50
2023-06-19T20:33:04.651Z,73.40
2023-06-19T20:35:32.285Z,73.50
2023-06-19T20:37:59.757Z,73.40
2023-06-19T20:40:28.895Z,73.40
2023-06-19T20:42:56.603Z,73.30
2023-06-19T20:45:27.756Z,73.30
2023-06-19T20:47:55.931Z,73.40
2023-06-19T20:50:24.342Z,73.50
2023-06-19T20:52:52.641Z,73.50
2023-06-19T20:55:20.427Z,73.50
2023-06-19T20:57:48.043Z,73.30
2023-06-19T21:00:18.148Z,73.40
2023-06-19T21:02:46.117Z,73.50
2023-06-19T21:05:18.509Z,73.60
2023-06-19T21:07:47.500Z,73.50
2023-06-19T21:10:15.609Z,73.50
2023-06-19T21:12:43.536Z,73.30
2023-06-19T21:15:11.699Z,73.40
2023-06-19T21:17:39.182Z,73.30
2023-06-19T21:20:10.688Z,73.20
2023-06-19T21:22:39.481Z,73.10
2023-06-19T21:25:08.449Z,73.00
2023-06-19T21:27:36.787Z,73.00
2023-06-19T21:30:06.054Z,73.00
2023-06-19T21:32:33.815Z,72.90
2023-06-19T21:35:01.638Z,72.90
2023-06-19T21:37:30.473Z,72.90
2023-06-19T21:39:59.441Z,72.90
2023-06-19T21:42:27.084Z,72.90
2023-06-19T21:44:54.827Z,72.80
2023-06-19T21:47:22.645Z,72.80
2023-06-19T21:49:50.356Z,72.90
2023-06-19T21:52:18.948Z,72.80
2023-06-19T21:54:46.690Z,72.80
2023-06-19T21:57:14.616Z,72.80
2023-06-19T21:59:44.793Z,72.70
2023-06-19T22:02:15.182Z,72.70
2023-06-19T22:04:43.118Z,72.50
2023-06-19T22:07:11.356Z,72.40
2023-06-19T22:09:39.144Z,72.30
2023-06-19T22:12:07.760Z,72.40
2023-06-19T22:14:39.168Z,72.30
2023-06-19T22:17:08.168Z,72.30
2023-06-19T22:19:38.578Z,72.20
2023-06-19T22:22:07.619Z,72.30
2023-06-19T22:24:37.867Z,72.30
2023-06-19T22:27:07.355Z,72.30
2023-06-19T22:29:35.252Z,72.40
2023-06-19T22:32:03.391Z,72.30
2023-06-19T22:34:31.580Z,72.40
2023-06-19T22:36:59.430Z,72.40
2023-06-19T22:39:27.127Z,72.30
2023-06-19T22:41:55.062Z,72.40
2023-06-19T22:44:23.007Z,72.40
2023-06-19T22:46:50.919Z,72.50
2023-06-19T22:49:18.608Z,72.40
2023-06-19T22:51:46.358Z,72.50
2023-06-19T22:54:14.194Z,72.50
2023-06-19T22:56:42.091Z,72.50
2023-06-19T22:59:10.059Z,72.50
2023-06-19T23:01:38.544Z,72.60
2023-06-19T23:04:08.043Z,72.60
2023-06-19T23:06:43.490Z,72.60
2023-06-19T23:09:14.552Z,72.60
2023-06-19T23:11:43.405Z,72.60
2023-06-19T23:14:11.687Z,72.60
2023-06-19T23:16:42.071Z,72.60
2023-06-19T23:19:09.658Z,72.50
2023-06-19T23:21:37.195Z,72.60
2023-06-19T23:24:05.365Z,72.60
2023-06-19T23:26:35.295Z,72.60
2023-06-19T23:29:03.063Z,72.50
2023-06-19T23:31:31.201Z,72.60
2023-06-19T23:34:01.663Z,72.60
2023-06-19T23:36:30.344Z,72.50
2023-06-19T23:38:58.051Z,72.50
2023-06-19T23:41:25.552Z,72.50
2023-06-19T23:43:53.172Z,72.60
2023-06-19T23:46:20.790Z,72.60
2023-06-19T23:48:48.466Z,72.50
2023-06-19T23:51:16.200Z,72.50
2023-06-19T23:53:43.727Z,72.50
2023-06-19T23:56:11.398Z,72.50
2023-06-19T23:58:38.834Z,72.60
